Time;durP1;ratioP1;P1;durP2;ratioP2;P2;SDS_P1;SDS_P2;PMS_P1;PMS_P2;Temp;Humidity;BMP_temperature;BMP_pressure;BME280_temperature;BME280_humidity;BME280_pressure;Samples;Min_cycle;Max_cycle;Signal;HPM_P1;HPM_P2
2021/10/12 00:01:07;;;;;;;15.75;12.30;;;;;;;;;;5018449;28;20042;-58
2021/10/12 00:07:11;;;;;;;17.42;13.05;;;;;;;;;;5009884;28;20033;-58
2021/10/12 00:09:46;;;;;;;19.13;12.15;;;;;;;;;;5001655;28;20044;-58
2021/10/12 00:12:30;;;;;;;18.65;12.57;;;;;;;;;;5018117;28;20030;-58
2021/10/12 00:15:03;;;;;;;19.25;12.55;;;;;;;;;;5016163;28;20030;-58
2021/10/12 00:17:44;;;;;;;19.85;13.90;;;;;;;;;;5016438;28;20026;-58
2021/10/12 00:20:52;;;;;;;18.27;13.20;;;;;;;;;;5016966;28;20034;-58
2021/10/12 00:23:39;;;;;;;20.75;14.85;;;;;;;;;;5017316;28;20048;-58
2021/10/12 00:26:43;;;;;;;19.48;14.48;;;;;;;;;;5017520;28;20329;-58
2021/10/12 00:29:52;;;;;;;20.08;15.45;;;;;;;;;;4975104;28;20078;-58
2021/10/12 00:32:32;;;;;;;;;;;;;;;;;;5026572;28;20048;-58
2021/10/12 00:35:13;;;;;;;15.82;12.48;;;;;;;;;;5036974;28;19920;-58
2021/10/12 00:38:17;;;;;;;20.42;14.88;;;;;;;;;;5036563;28;20028;-57
2021/10/12 00:41:00;;;;;;;16.38;13.45;;;;;;;;;;4995575;28;20034;-58
2021/10/12 00:44:01;;;;;;;22.65;14.45;;;;;;;;;;5032106;28;20045;-58
2021/10/12 00:46:49;;;;;;;20.10;15.23;;;;;;;;;;5021863;28;20087;-58
2021/10/12 00:49:57;;;;;;;18.33;13.98;;;;;;;;;;5037120;28;20371;-58
2021/10/12 00:52:27;;;;;;;22.70;12.60;;;;;;;;;;5035123;28;20045;-58
2021/10/12 00:57:56;;;;;;;20.05;12.20;;;;;;;;;;5039698;28;20034;-58
2021/10/12 01:00:38;;;;;;;21.27;13.43;;;;;;;;;;5041183;28;20037;-58
2021/10/12 01:03:28;;;;;;;17.58;13.77;;;;;;;;;;5040892;28;20041;-57
2021/10/12 01:09:11;;;;;;;14.77;12.00;;;;;;;;;;5017797;28;20041;-58
2021/10/12 01:11:47;;;;;;;20.53;14.30;;;;;;;;;;5039234;28;20122;-58
2021/10/12 01:14:17;;;;;;;17.77;11.82;;;;;;;;;;5041707;28;20614;-58
2021/10/12 01:17:08;;;;;;;17.80;11.25;;;;;;;;;;5040529;28;20033;-58
2021/10/12 01:20:00;;;;;;;19.65;12.30;;;;;;;;;;5040706;28;20071;-58
2021/10/12 01:25:36;;;;;;;13.57;10.35;;;;;;;;;;5040574;28;20180;-58
2021/10/12 01:28:30;;;;;;;14.32;10.20;;;;;;;;;;5040282;28;20108;-58
2021/10/12 01:31:20;;;;;;;17.98;12.07;;;;;;;;;;5040580;28;20104;-58
2021/10/12 01:33:56;;;;;;;12.80;10.60;;;;;;;;;;5018485;28;20416;-58
2021/10/12 01:36:28;;;;;;;19.15;11.70;;;;;;;;;;5019649;28;20024;-58
2021/10/12 01:39:35;;;;;;;15.95;11.32;;;;;;;;;;5019955;28;20033;-58
2021/10/12 01:42:17;;;;;;;17.02;12.98;;;;;;;;;;5020083;28;20368;-58
2021/10/12 01:44:56;;;;;;;;;;;;;;;;;;;;;
2021/10/12 01:47:51;;;;;;;12.20;10.20;;;;;;;;;;5018858;28;20093;-58
2021/10/12 01:50:38;;;;;;;18.08;10.15;;;;;;;;;;5019894;28;20041;-58
2021/10/12 01:53:31;;;;;;;22.27;12.98;;;;;;;;;;5019145;28;20030;-58
2021/10/12 01:59:18;;;;;;;17.35;14.73;;;;;;;;;;5017907;28;20173;-58
2021/10/12 02:01:53;;;;;;;17.00;13.45;;;;;;;;;;5017944;28;20034;-58
2021/10/12 02:07:25;;;;;;;22.27;14.90;;;;;;;;;;5003820;28;20030;-58
2021/10/12 02:10:00;;;;;;;15.00;12.88;;;;;;;;;;5020013;28;20034;-58
2021/10/12 02:16:20;;;;;;;20.23;13.93;;;;;;;;;;5019815;28;20040;-58
2021/10/12 02:18:53;;;;;;;17.98;13.02;;;;;;;;;;5018921;28;20037;-58
2021/10/12 02:21:28;;;;;;;23.55;17.38;;;;;;;;;;5019426;28;20038;-58
2021/10/12 02:27:00;;;;;;;25.33;17.00;;;;;;;;;;5019164;28;20490;-58
2021/10/12 02:29:59;;;;;;;26.15;15.80;;;;;;;;;;5019904;28;20403;-58
2021/10/12 02:32:31;;;;;;;17.83;14.20;;;;;;;;;;5030530;28;20033;-58
2021/10/12 02:35:10;;;;;;;25.77;15.18;;;;;;;;;;5040139;28;20061;-58
2021/10/12 02:38:06;;;;;;;25.20;16.70;;;;;;;;;;5039278;28;20083;-58
2021/10/12 02:40:52;;;;;;;20.38;15.60;;;;;;;;;;5038897;28;20076;-58
2021/10/12 02:43:53;;;;;;;21.67;16.52;;;;;;;;;;5039218;28;20025;-58
2021/10/12 02:46:48;;;;;;;22.13;17.75;;;;;;;;;;5038696;28;20503;-58
2021/10/12 02:49:34;;;;;;;;;;;;;;;;;;;;;
2021/10/12 02:52:19;;;;;;;22.67;13.82;;;;;;;;;;5037648;28;20112;-58
2021/10/12 02:57:52;;;;;;;23.02;16.75;;;;;;;;;;5032722;28;20534;-58
2021/10/12 03:03:22;;;;;;;;;;;;;;;;;;;;;
2021/10/12 03:05:52;;;;;;;24.65;13.95;;;;;;;;;;5038162;28;20144;-58
2021/10/12 03:08:27;;;;;;;19.45;14.05;;;;;;;;;;5037209;28;20030;-58
2021/10/12 03:11:30;;;;;;;22.52;15.32;;;;;;;;;;5038930;28;20366;-58
2021/10/12 03:14:12;;;;;;;17.70;13.48;;;;;;;;;;4987614;28;20048;-58
2021/10/12 03:17:00;;;;;;;17.15;13.60;;;;;;;;;;5036952;28;20048;-59
2021/10/12 03:19:40;;;;;;;16.67;13.45;;;;;;;;;;5038546;28;20072;-58
2021/10/12 03:25:44;;;;;;;18.30;13.68;;;;;;;;;;5016208;28;20065;-58
2021/10/12 03:28:23;;;;;;;14.25;12.55;;;;;;;;;;5015412;28;20022;-58
2021/10/12 03:31:01;;;;;;;16.90;12.95;;;;;;;;;;5014176;28;20033;-58
2021/10/12 03:33:33;;;;;;;19.02;13.48;;;;;;;;;;4991028;28;20507;-58
2021/10/12 03:39:23;;;;;;;19.15;12.70;;;;;;;;;;5012736;28;20078;-58
2021/10/12 03:41:52;;;;;;;20.55;14.73;;;;;;;;;;5013284;28;20416;-58
2021/10/12 03:44:39;;;;;;;16.67;12.90;;;;;;;;;;5011786;28;20120;-58
2021/10/12 03:47:25;;;;;;;16.38;13.13;;;;;;;;;;5016081;28;20224;-58
2021/10/12 03:50:33;;;;;;;21.77;15.30;;;;;;;;;;5020494;28;20616;-58
2021/10/12 03:53:02;;;;;;;23.17;14.73;;;;;;;;;;5032464;28;20578;-57
2021/10/12 03:55:32;;;;;;;21.67;15.07;;;;;;;;;;5033115;28;20365;-57
2021/10/12 03:58:18;;;;;;;17.63;14.43;;;;;;;;;;5031883;28;20273;-58
2021/10/12 04:00:49;;;;;;;19.20;15.02;;;;;;;;;;5028565;28;20060;-58
2021/10/12 04:09:42;;;;;;;18.33;14.00;;;;;;;;;;5032936;28;20037;-58
2021/10/12 04:12:11;;;;;;;21.88;13.93;;;;;;;;;;5032852;28;20037;-58
2021/10/12 04:18:17;;;;;;;18.98;13.30;;;;;;;;;;5009993;28;20030;-58
2021/10/12 04:21:06;;;;;;;16.02;13.13;;;;;;;;;;5019301;28;20064;-56
2021/10/12 04:23:51;;;;;;;16.65;13.20;;;;;;;;;;5031431;28;20428;-58
2021/10/12 04:26:43;;;;;;;13.15;10.88;;;;;;;;;;5035057;28;20045;-58
2021/10/12 04:29:28;;;;;;;16.80;12.95;;;;;;;;;;5038625;28;20038;-57
2021/10/12 04:32:18;;;;;;;18.40;11.98;;;;;;;;;;5031743;28;20472;-58
2021/10/12 04:34:50;;;;;;;15.38;11.57;;;;;;;;;;5016182;28;20100;-58
2021/10/12 04:37:21;;;;;;;15.75;12.95;;;;;;;;;;5032168;28;20041;-57
2021/10/12 04:40:20;;;;;;;14.68;13.02;;;;;;;;;;5034064;28;20041;-58
2021/10/12 04:42:56;;;;;;;15.05;11.75;;;;;;;;;;5034528;28;20502;-57
2021/10/12 04:45:43;;;;;;;18.95;13.05;;;;;;;;;;5035328;28;20025;-57
2021/10/12 04:51:55;;;;;;;19.17;12.40;;;;;;;;;;5024496;28;20437;-58
2021/10/12 04:57:32;;;;;;;14.57;10.02;;;;;;;;;;5018033;28;20037;-58
2021/10/12 05:05:51;;;;;;;12.30;9.55;;;;;;;;;;5011527;28;20029;-58
2021/10/12 05:08:26;;;;;;;13.23;9.52;;;;;;;;;;5033618;28;20116;-58
2021/10/12 05:11:01;;;;;;;15.48;11.63;;;;;;;;;;5035974;28;20083;-60
2021/10/12 05:13:49;;;;;;;16.23;9.63;;;;;;;;;;5035057;28;20028;-57
2021/10/12 05:16:32;;;;;;;15.25;10.35;;;;;;;;;;5033915;28;20021;-58
2021/10/12 05:19:01;;;;;;;14.85;11.30;;;;;;;;;;5034240;28;20045;-58
2021/10/12 05:22:00;;;;;;;13.77;9.35;;;;;;;;;;5033867;28;20056;-58
2021/10/12 05:24:32;;;;;;;14.52;10.57;;;;;;;;;;5031138;28;20052;-58
2021/10/12 05:27:43;;;;;;;;;;;;;;;;;;;;;
2021/10/12 05:30:25;;;;;;;;;;;;;;;;;;5034226;28;20495;-58
2021/10/12 05:33:08;;;;;;;;;;;;;;;;;;;;;
2021/10/12 05:39:14;;;;;;;13.00;8.35;;;;;;;;;;5014180;28;20046;-57
2021/10/12 05:41:55;;;;;;;15.50;9.45;;;;;;;;;;5014969;28;20535;-57
2021/10/12 05:44:56;;;;;;;15.50;10.27;;;;;;;;;;5013771;28;20455;-58
2021/10/12 05:47:41;;;;;;;16.25;10.48;;;;;;;;;;5033103;28;20104;-58
2021/10/12 05:50:28;;;;;;;15.90;10.18;;;;;;;;;;5034039;28;20045;-58
2021/10/12 05:59:03;;;;;;;13.55;10.63;;;;;;;;;;5033635;28;20426;-58
2021/10/12 06:02:02;;;;;;;14.18;10.57;;;;;;;;;;5029493;28;20108;-58
2021/10/12 06:04:40;;;;;;;13.40;9.90;;;;;;;;;;5034176;28;20048;-59
2021/10/12 06:10:30;;;;;;;23.55;19.77;;;;;;;;;;5033728;28;20061;-59
2021/10/12 06:15:56;;;;;;;32.97;15.25;;;;;;;;;;5034322;28;20061;-57
2021/10/12 06:21:33;;;;;;;18.10;10.32;;;;;;;;;;5033190;28;20029;-59
2021/10/12 06:27:39;;;;;;;13.98;11.07;;;;;;;;;;5032712;28;20026;-59
2021/10/12 06:30:08;;;;;;;15.85;10.85;;;;;;;;;;5034129;28;20419;-60
2021/10/12 06:33:05;;;;;;;14.88;9.40;;;;;;;;;;5033755;28;20025;-58
2021/10/12 06:41:43;;;;;;;17.23;11.70;;;;;;;;;;5034232;28;20266;-58
2021/10/12 06:44:33;;;;;;;16.45;11.40;;;;;;;;;;5032274;28;20056;-57
2021/10/12 06:50:23;;;;;;;19.15;13.50;;;;;;;;;;5032169;28;20033;-57
2021/10/12 06:53:50;;;;;;;13.85;10.77;;;;;;;;;;5032681;28;20025;-57
2021/10/12 06:56:32;;;;;;;;;;;;;;;;;;;;;
2021/10/12 06:59:29;;;;;;;12.55;10.73;;;;;;;;;;5031165;28;20361;-57
2021/10/12 07:02:03;;;;;;;13.93;10.80;;;;;;;;;;5031414;28;20029;-57
2021/10/12 07:08:06;;;;;;;14.65;11.25;;;;;;;;;;5006686;28;20096;-57
2021/10/12 07:10:55;;;;;;;15.60;11.18;;;;;;;;;;5008377;28;20122;-57
2021/10/12 07:13:33;;;;;;;14.52;11.98;;;;;;;;;;5008610;28;20381;-56
2021/10/12 07:16:04;;;;;;;14.75;10.45;;;;;;;;;;5009076;28;20045;-57
2021/10/12 07:18:37;;;;;;;15.43;11.48;;;;;;;;;;4999260;28;20103;-57
2021/10/12 07:21:14;;;;;;;14.30;10.93;;;;;;;;;;5032872;28;20117;-57
2021/10/12 07:23:55;;;;;;;20.02;11.95;;;;;;;;;;5027596;28;20048;-59
2021/10/12 07:26:52;;;;;;;14.27;10.38;;;;;;;;;;5023000;28;20352;-59
2021/10/12 07:29:51;;;;;;;;;;;;;;;;;;;;;
2021/10/12 07:32:40;;;;;;;13.68;10.00;;;;;;;;;;5021162;28;20395;-60
2021/10/12 07:35:34;;;;;;;11.35;8.00;;;;;;;;;;5033217;28;20351;-59
2021/10/12 07:38:22;;;;;;;11.85;10.63;;;;;;;;;;5031286;28;20029;-59
2021/10/12 07:40:54;;;;;;;14.30;10.05;;;;;;;;;;5032114;28;20038;-59
2021/10/12 07:43:34;;;;;;;11.32;8.40;;;;;;;;;;5032522;28;20029;-58
2021/10/12 07:46:09;;;;;;;11.80;8.68;;;;;;;;;;5031252;28;20546;-59
2021/10/12 07:51:34;;;;;;;12.93;7.55;;;;;;;;;;5030039;28;20025;-58
2021/10/12 07:54:25;;;;;;;9.75;8.65;;;;;;;;;;5030345;28;20087;-57
2021/10/12 07:57:03;;;;;;;12.25;8.40;;;;;;;;;;5028659;28;20022;-57
2021/10/12 07:59:45;;;;;;;;;;;;;;;;;;;;;
2021/10/12 08:02:16;;;;;;;9.48;7.82;;;;;;;;;;5030863;28;20064;-56
2021/10/12 08:04:42;;;;;;;;;;;;;;;;;;5030705;28;20052;-59
2021/10/12 08:07:25;;;;;;;11.57;7.97;;;;;;;;;;5031705;28;19909;-59
2021/10/12 08:10:03;;;;;;;8.27;6.85;;;;;;;;;;5032320;28;20455;-59
2021/10/12 08:16:26;;;;;;;10.02;8.65;;;;;;;;;;5013180;28;20037;-59
2021/10/12 08:21:51;;;;;;;12.02;8.18;;;;;;;;;;5032688;28;20095;-59
2021/10/12 08:24:39;;;;;;;9.30;8.38;;;;;;;;;;5031352;28;20025;-59
2021/10/12 08:27:15;;;;;;;13.07;9.25;;;;;;;;;;5031013;28;20026;-59
2021/10/12 08:29:53;;;;;;;11.55;8.20;;;;;;;;;;5032331;28;20029;-58
2021/10/12 08:32:49;;;;;;;11.85;7.50;;;;;;;;;;5030739;28;20156;-59
2021/10/12 08:36:13;;;;;;;11.43;8.98;;;;;;;;;;5030969;28;20021;-59
2021/10/12 08:38:42;;;;;;;14.90;9.23;;;;;;;;;;5011901;28;20033;-59
2021/10/12 08:41:44;;;;;;;;;;;;;;;;;;;;;
2021/10/12 08:44:13;;;;;;;13.90;8.68;;;;;;;;;;5029604;28;20040;-59
2021/10/12 08:47:07;;;;;;;8.93;7.50;;;;;;;;;;5028930;28;20041;-59
2021/10/12 08:50:04;;;;;;;8.98;8.07;;;;;;;;;;5000286;28;20506;-58
2021/10/12 08:52:34;;;;;;;11.63;7.28;;;;;;;;;;5011312;28;20034;-59
2021/10/12 08:58:13;;;;;;;8.07;6.93;;;;;;;;;;5031258;28;20053;-59
2021/10/12 09:00:45;;;;;;;11.90;8.80;;;;;;;;;;5030505;28;20048;-59
2021/10/12 09:03:39;;;;;;;11.65;7.57;;;;;;;;;;5032046;28;20025;-59
2021/10/12 09:06:45;;;;;;;12.50;7.78;;;;;;;;;;5031175;28;20096;-59
2021/10/12 09:09:23;;;;;;;8.90;7.00;;;;;;;;;;5031516;28;20394;-58
2021/10/12 09:12:04;;;;;;;10.27;6.32;;;;;;;;;;5032280;28;20115;-59
2021/10/12 09:14:31;;;;;;;8.80;7.00;;;;;;;;;;5035057;28;20048;-59
2021/10/12 09:17:22;;;;;;;8.02;7.05;;;;;;;;;;5033949;28;20468;-59
2021/10/12 09:20:02;;;;;;;8.32;6.32;;;;;;;;;;5033258;28;20300;-59
2021/10/12 09:22:44;;;;;;;14.45;8.05;;;;;;;;;;5033528;28;20400;-58
2021/10/12 09:25:20;;;;;;;;;;;;;;;;;;;;;
2021/10/12 09:33:55;;;;;;;9.77;7.10;;;;;;;;;;5014710;28;20048;-58
2021/10/12 09:36:39;;;;;;;15.02;7.40;;;;;;;;;;5023197;28;20025;-58
2021/10/12 09:42:15;;;;;;;;;;;;;;;;;;;;;
2021/10/12 09:45:12;;;;;;;13.80;7.60;;;;;;;;;;5033249;28;20064;-59
2021/10/12 09:51:11;;;;;;;8.38;6.35;;;;;;;;;;4984894;28;20054;-59
2021/10/12 09:54:16;;;;;;;10.48;7.55;;;;;;;;;;4959362;28;20552;-59
2021/10/12 10:00:09;;;;;;;12.88;6.55;;;;;;;;;;4976525;28;20046;-59
2021/10/12 10:02:39;;;;;;;10.07;6.85;;;;;;;;;;5014428;28;20471;-59
2021/10/12 10:05:28;;;;;;;;;;;;;;;;;;;;;
2021/10/12 10:08:12;;;;;;;9.68;7.55;;;;;;;;;;5011703;28;20040;-59
2021/10/12 10:13:42;;;;;;;9.90;5.70;;;;;;;;;;5032112;28;20108;-59
2021/10/12 10:16:28;;;;;;;8.23;6.55;;;;;;;;;;5031250;28;20053;-59
2021/10/12 10:19:29;;;;;;;8.65;6.70;;;;;;;;;;5032309;28;20030;-56
2021/10/12 10:22:27;;;;;;;9.20;6.68;;;;;;;;;;5024197;28;20066;-57
2021/10/12 10:28:06;;;;;;;10.40;6.60;;;;;;;;;;5033027;28;20029;-59
2021/10/12 10:33:43;;;;;;;12.13;6.88;;;;;;;;;;5009689;28;20034;-58
2021/10/12 10:36:39;;;;;;;9.25;6.90;;;;;;;;;;5012637;28;20034;-59
2021/10/12 10:39:37;;;;;;;10.13;5.80;;;;;;;;;;5013846;28;20106;-59
2021/10/12 10:42:30;;;;;;;8.65;6.20;;;;;;;;;;5014308;28;20026;-58
2021/10/12 10:45:09;;;;;;;7.07;6.07;;;;;;;;;;5011154;28;20384;-59
2021/10/12 10:47:54;;;;;;;10.05;7.30;;;;;;;;;;5010564;28;20034;-57
2021/10/12 10:50:58;;;;;;;11.05;7.38;;;;;;;;;;5012538;28;20072;-58
2021/10/12 10:53:45;;;;;;;12.00;7.22;;;;;;;;;;4966994;28;20034;-59
2021/10/12 10:56:14;;;;;;;9.13;7.18;;;;;;;;;;4989238;28;20346;-58
2021/10/12 11:01:55;;;;;;;7.82;6.65;;;;;;;;;;4988801;28;20392;-59
2021/10/12 11:04:39;;;;;;;8.45;6.13;;;;;;;;;;5032258;28;20025;-58
2021/10/12 11:10:19;;;;;;;;;;;;;;;;;;5033151;28;20044;-58
2021/10/12 11:13:08;;;;;;;7.60;4.82;;;;;;;;;;5033736;28;19958;-58
2021/10/12 11:16:07;;;;;;;8.95;5.20;;;;;;;;;;5022419;28;20029;-58
2021/10/12 11:18:42;;;;;;;8.05;5.43;;;;;;;;;;5028961;28;20502;-58
2021/10/12 11:24:15;;;;;;;6.28;3.55;;;;;;;;;;5024941;28;20064;-58
2021/10/12 11:26:55;;;;;;;7.05;4.18;;;;;;;;;;5035409;28;20048;-59
2021/10/12 11:29:31;;;;;;;7.10;4.38;;;;;;;;;;5032312;28;20555;-58
2021/10/12 11:32:33;;;;;;;9.77;4.78;;;;;;;;;;5032246;28;20112;-59
2021/10/12 11:35:09;;;;;;;5.10;4.25;;;;;;;;;;5031005;28;20067;-58
2021/10/12 11:38:07;;;;;;;6.53;4.65;;;;;;;;;;5030931;28;20034;-59
2021/10/12 11:40:58;;;;;;;10.55;4.35;;;;;;;;;;5032232;28;20069;-58
2021/10/12 11:43:40;;;;;;;;;;;;;;;;;;;;;
2021/10/12 11:49:32;;;;;;;5.93;4.15;;;;;;;;;;5030926;28;20459;-58
2021/10/12 11:52:16;;;;;;;10.80;3.75;;;;;;;;;;5031580;28;20043;-59
2021/10/12 11:55:02;;;;;;;6.50;4.60;;;;;;;;;;5029813;28;20030;-58
2021/10/12 11:57:49;;;;;;;6.60;4.43;;;;;;;;;;5031609;28;20037;-58
2021/10/12 12:00:35;;;;;;;7.53;5.20;;;;;;;;;;5032242;28;20357;-59
2021/10/12 12:03:16;;;;;;;7.47;5.05;;;;;;;;;;5031863;28;20479;-58
2021/10/12 12:08:49;;;;;;;7.90;6.05;;;;;;;;;;5031065;28;20509;-58
2021/10/12 12:11:27;;;;;;;6.20;5.10;;;;;;;;;;5027606;28;20112;-58
2021/10/12 12:13:54;;;;;;;6.47;4.30;;;;;;;;;;5011294;28;20254;-58
2021/10/12 12:16:46;;;;;;;;;;;;;;;;;;;;;
2021/10/12 12:19:36;;;;;;;10.88;4.90;;;;;;;;;;5032023;28;20041;-57
2021/10/12 12:22:21;;;;;;;8.68;5.22;;;;;;;;;;5031486;28;20030;-59
2021/10/12 12:28:17;;;;;;;6.53;4.20;;;;;;;;;;5029897;28;20053;-58
2021/10/12 12:31:04;;;;;;;6.53;3.40;;;;;;;;;;5030735;28;20041;-59
2021/10/12 12:33:52;;;;;;;8.27;4.68;;;;;;;;;;5012166;28;20057;-58
2021/10/12 12:36:28;;;;;;;7.30;3.72;;;;;;;;;;5029555;28;20029;-58
2021/10/12 12:39:18;;;;;;;6.35;4.32;;;;;;;;;;5009738;28;20538;-58
2021/10/12 12:41:59;;;;;;;4.68;3.53;;;;;;;;;;5029782;28;20112;-58
2021/10/12 12:45:13;;;;;;;7.82;3.85;;;;;;;;;;5012491;28;20480;-58
2021/10/12 12:48:04;;;;;;;7.70;4.65;;;;;;;;;;4996257;28;20053;-58
2021/10/12 12:50:34;;;;;;;11.90;4.40;;;;;;;;;;5022710;28;20522;-57
2021/10/12 12:53:30;;;;;;;5.87;3.60;;;;;;;;;;5036067;28;20029;-58
2021/10/12 12:56:24;;;;;;;7.68;4.05;;;;;;;;;;5021375;28;20272;-58
2021/10/12 12:59:21;;;;;;;5.78;3.63;;;;;;;;;;5035082;28;20031;-58
2021/10/12 13:01:53;;;;;;;4.53;3.42;;;;;;;;;;5035078;28;20040;-59
2021/10/12 13:08:02;;;;;;;6.20;3.92;;;;;;;;;;5032048;28;20167;-58
2021/10/12 13:10:32;;;;;;;8.00;3.78;;;;;;;;;;5035139;28;20029;-58
2021/10/12 13:13:19;;;;;;;4.25;3.15;;;;;;;;;;5035669;28;20479;-58
2021/10/12 13:16:24;;;;;;;8.60;3.55;;;;;;;;;;5034292;28;20053;-57
2021/10/12 13:19:04;;;;;;;5.93;3.88;;;;;;;;;;4993172;28;20043;-59
2021/10/12 13:21:30;;;;;;;10.45;4.38;;;;;;;;;;4992831;28;20038;-58
2021/10/12 13:24:33;;;;;;;6.57;3.22;;;;;;;;;;5028254;28;20044;-58
2021/10/12 13:27:22;;;;;;;8.23;3.80;;;;;;;;;;5035276;28;20037;-58
2021/10/12 13:30:03;;;;;;;7.22;4.10;;;;;;;;;;5032908;28;20033;-57
2021/10/12 13:32:43;;;;;;;;;;;;;;;;;;;;;
2021/10/12 13:35:25;;;;;;;6.95;3.75;;;;;;;;;;5034443;28;20124;-58
2021/10/12 13:38:48;;;;;;;4.82;3.05;;;;;;;;;;5033703;28;20125;-59
2021/10/12 13:41:12;;;;;;;3.72;2.78;;;;;;;;;;5027100;28;20045;-58
2021/10/12 13:44:06;;;;;;;8.57;3.90;;;;;;;;;;5037712;28;20773;-58
2021/10/12 13:46:43;;;;;;;4.15;2.67;;;;;;;;;;5035519;28;20172;-58
2021/10/12 13:52:11;;;;;;;4.20;2.78;;;;;;;;;;5034468;28;20068;-58
2021/10/12 13:54:50;;;;;;;4.63;3.03;;;;;;;;;;5033509;28;20541;-58
2021/10/12 13:57:38;;;;;;;;;;;;;;;;;;;;;
2021/10/12 14:00:19;;;;;;;4.30;2.75;;;;;;;;;;5014773;28;20034;-58
2021/10/12 14:03:02;;;;;;;4.35;2.92;;;;;;;;;;5014477;28;20038;-58
2021/10/12 14:05:46;;;;;;;3.72;3.17;;;;;;;;;;5018640;28;20026;-58
2021/10/12 14:08:30;;;;;;;6.53;2.60;;;;;;;;;;5021543;28;20029;-58
2021/10/12 14:10:59;;;;;;;3.78;2.63;;;;;;;;;;5034268;28;20031;-58
2021/10/12 14:14:00;;;;;;;;;;;;;;;;;;;;;
2021/10/12 14:22:05;;;;;;;5.43;3.35;;;;;;;;;;5026356;28;20332;-56
2021/10/12 14:27:44;;;;;;;;;;;;;;;;;;5030800;28;20064;-58
2021/10/12 14:33:33;;;;;;;;;;;;;;;;;;;;;
2021/10/12 14:36:22;;;;;;;5.85;3.22;;;;;;;;;;5034135;28;20356;-58
2021/10/12 14:39:06;;;;;;;6.80;3.08;;;;;;;;;;5031378;28;20104;-56
2021/10/12 14:41:58;;;;;;;9.10;3.13;;;;;;;;;;5016472;28;20056;-58
2021/10/12 14:44:27;;;;;;;8.48;3.35;;;;;;;;;;5032865;28;20555;-58
2021/10/12 14:47:15;;;;;;;6.80;4.00;;;;;;;;;;5032815;28;20047;-58
2021/10/12 14:50:03;;;;;;;4.80;3.45;;;;;;;;;;5032144;28;20494;-58
2021/10/12 14:52:38;;;;;;;6.65;4.28;;;;;;;;;;5032303;28;20127;-58
2021/10/12 14:55:16;;;;;;;6.72;3.33;;;;;;;;;;5034144;28;20022;-58
2021/10/12 14:58:01;;;;;;;6.68;3.65;;;;;;;;;;5032473;28;20071;-58
2021/10/12 15:00:47;;;;;;;6.20;4.05;;;;;;;;;;5034013;28;20056;-59
2021/10/12 15:06:17;;;;;;;7.40;3.92;;;;;;;;;;4968574;28;20121;-58
2021/10/12 15:08:58;;;;;;;7.13;3.17;;;;;;;;;;4951910;28;20042;-58
2021/10/12 15:11:41;;;;;;;3.53;2.83;;;;;;;;;;4999764;28;20100;-58
2021/10/12 15:14:32;;;;;;;7.93;3.63;;;;;;;;;;4995788;28;20483;-58
2021/10/12 15:17:04;;;;;;;4.03;2.70;;;;;;;;;;5010447;28;20057;-58
2021/10/12 15:19:50;;;;;;;5.93;2.90;;;;;;;;;;5011128;28;20403;-59
2021/10/12 15:22:51;;;;;;;5.82;3.33;;;;;;;;;;5011303;28;20337;-58
2021/10/12 15:25:23;;;;;;;6.22;3.75;;;;;;;;;;5004520;28;20038;-58
2021/10/12 15:28:10;;;;;;;5.68;3.63;;;;;;;;;;5009462;28;20483;-58
2021/10/12 15:34:15;;;;;;;4.85;3.00;;;;;;;;;;5004299;28;20384;-58
2021/10/12 15:36:59;;;;;;;4.32;2.85;;;;;;;;;;5012100;28;20038;-58
2021/10/12 15:39:31;;;;;;;6.10;3.33;;;;;;;;;;5013043;28;20034;-58
2021/10/12 15:42:22;;;;;;;4.20;2.95;;;;;;;;;;5025116;28;20198;-58
2021/10/12 15:48:14;;;;;;;7.22;3.38;;;;;;;;;;5031963;28;20037;-58
2021/10/12 15:50:46;;;;;;;4.65;3.00;;;;;;;;;;5033359;28;20030;-58
2021/10/12 15:53:42;;;;;;;5.85;3.72;;;;;;;;;;5030941;28;20025;-58
2021/10/12 15:56:26;;;;;;;5.78;3.20;;;;;;;;;;5033353;28;20037;-58
2021/10/12 16:02:14;;;;;;;3.72;2.72;;;;;;;;;;5031542;28;20483;-58
2021/10/12 16:04:40;;;;;;;4.85;3.25;;;;;;;;;;5031481;28;20083;-58
2021/10/12 16:07:42;;;;;;;6.88;3.50;;;;;;;;;;5032287;28;20115;-58
2021/10/12 16:22:08;;;;;;;4.22;3.58;;;;;;;;;;5031730;28;20039;-58
2021/10/12 16:24:38;;;;;;;4.18;2.50;;;;;;;;;;5028248;28;20484;-58
2021/10/12 16:27:23;;;;;;;5.40;3.25;;;;;;;;;;5031050;28;20021;-58
2021/10/12 16:29:58;;;;;;;7.70;3.33;;;;;;;;;;5026838;28;20511;-58
2021/10/12 16:32:38;;;;;;;5.70;3.63;;;;;;;;;;5023867;28;20398;-58
2021/10/12 16:35:20;;;;;;;4.15;3.00;;;;;;;;;;5030489;28;20391;-58
2021/10/12 16:38:16;;;;;;;3.95;3.05;;;;;;;;;;5030209;28;20105;-58
2021/10/12 16:41:08;;;;;;;7.57;3.65;;;;;;;;;;5030294;28;20376;-58
2021/10/12 16:43:41;;;;;;;9.68;3.45;;;;;;;;;;5031092;28;20057;-58
2021/10/12 16:46:25;;;;;;;4.93;3.83;;;;;;;;;;5030064;28;20026;-58
2021/10/12 16:49:17;;;;;;;5.90;3.42;;;;;;;;;;5031592;28;20026;-57
2021/10/12 16:51:52;;;;;;;6.35;4.22;;;;;;;;;;5027597;28;20065;-58
2021/10/12 16:54:37;;;;;;;7.60;4.00;;;;;;;;;;5032845;28;20029;-58
2021/10/12 16:57:25;;;;;;;7.60;3.50;;;;;;;;;;5031522;28;20026;-58
2021/10/12 17:00:16;;;;;;;5.68;3.80;;;;;;;;;;5029862;28;20617;-58
2021/10/12 17:02:43;;;;;;;6.53;4.28;;;;;;;;;;5031654;28;20057;-58
2021/10/12 17:05:33;;;;;;;5.60;3.72;;;;;;;;;;5031777;28;20486;-59
2021/10/12 17:21:28;;;;;;;8.80;4.28;;;;;;;;;;5007708;28;20090;-58
2021/10/12 17:24:17;;;;;;;9.18;3.55;;;;;;;;;;5004553;28;20057;-58
2021/10/12 17:26:55;;;;;;;7.30;4.20;;;;;;;;;;5018627;28;20037;-59
2021/10/12 17:32:54;;;;;;;4.60;3.30;;;;;;;;;;5016836;28;20033;-58
2021/10/12 17:38:37;;;;;;;5.57;3.30;;;;;;;;;;5029631;28;20035;-58
2021/10/12 17:41:18;;;;;;;7.38;3.80;;;;;;;;;;5033381;28;20111;-58
2021/10/12 17:43:51;;;;;;;6.68;4.30;;;;;;;;;;5034495;28;20033;-59
2021/10/12 17:46:28;;;;;;;6.85;4.85;;;;;;;;;;5034248;28;20040;-57
2021/10/12 17:49:17;;;;;;;8.57;4.72;;;;;;;;;;5034399;28;20044;-58
2021/10/12 17:52:04;;;;;;;5.10;4.25;;;;;;;;;;5034378;28;20045;-57
2021/10/12 17:54:55;;;;;;;;;;;;;;;;;;;;;
2021/10/12 17:57:53;;;;;;;;;;;;;;;;;;;;;
2021/10/12 18:00:39;;;;;;;7.80;4.65;;;;;;;;;;5023488;28;20407;-58
2021/10/12 18:03:09;;;;;;;12.18;5.43;;;;;;;;;;5028413;28;20038;-59
2021/10/12 18:06:04;;;;;;;5.90;4.50;;;;;;;;;;5043208;28;20487;-58
2021/10/12 18:08:51;;;;;;;7.53;4.60;;;;;;;;;;5031745;28;20026;-59
2021/10/12 18:14:40;;;;;;;7.22;3.88;;;;;;;;;;5031173;28;20106;-58
2021/10/12 18:17:25;;;;;;;6.50;4.13;;;;;;;;;;5031311;28;20034;-59
2021/10/12 18:20:24;;;;;;;7.05;5.30;;;;;;;;;;5029552;28;20046;-59
2021/10/12 18:23:34;;;;;;;3.88;3.47;;;;;;;;;;5029806;28;20213;-58
2021/10/12 18:26:21;;;;;;;8.32;4.28;;;;;;;;;;5034985;28;20040;-59
2021/10/12 18:31:47;;;;;;;4.82;3.20;;;;;;;;;;5033197;28;20116;-58
2021/10/12 18:34:16;;;;;;;9.88;4.53;;;;;;;;;;5029030;28;20480;-58
2021/10/12 18:36:51;;;;;;;6.25;3.78;;;;;;;;;;5026831;28;20025;-58
2021/10/12 18:39:31;;;;;;;6.35;4.03;;;;;;;;;;5010469;28;20046;-59
2021/10/12 18:42:22;;;;;;;5.22;3.70;;;;;;;;;;5033409;28;20045;-59
2021/10/12 18:48:42;;;;;;;4.00;3.38;;;;;;;;;;5009931;28;20041;-58
2021/10/12 18:51:05;;;;;;;5.55;3.35;;;;;;;;;;5002979;28;20038;-59
2021/10/12 18:53:37;;;;;;;5.57;4.35;;;;;;;;;;5010261;28;20125;-59
2021/10/12 18:56:08;;;;;;;6.28;3.50;;;;;;;;;;4994323;28;20032;-59
2021/10/12 18:58:35;;;;;;;6.10;2.80;;;;;;;;;;4993955;28;20618;-58
2021/10/12 19:01:25;;;;;;;6.05;3.80;;;;;;;;;;5030518;28;20060;-59
2021/10/12 19:04:04;;;;;;;5.05;3.45;;;;;;;;;;5011392;28;20391;-59
2021/10/12 19:10:08;;;;;;;;;;;;;;;;;;;;;
2021/10/12 19:12:56;;;;;;;5.50;3.83;;;;;;;;;;5031325;28;20040;-58
2021/10/12 19:15:30;;;;;;;5.60;3.58;;;;;;;;;;5013829;28;20030;-60
2021/10/12 19:18:25;;;;;;;8.88;4.32;;;;;;;;;;5027916;28;20032;-59
2021/10/12 19:21:23;;;;;;;10.02;3.35;;;;;;;;;;5026571;28;20454;-58
2021/10/12 19:24:01;;;;;;;4.72;3.53;;;;;;;;;;5039077;28;20136;-58
2021/10/12 19:32:49;;;;;;;4.05;2.80;;;;;;;;;;5032263;28;20391;-57
2021/10/12 19:41:47;;;;;;;;;;;;;;;;;;;;;
2021/10/12 19:44:35;;;;;;;9.70;3.60;;;;;;;;;;5028341;28;20038;-57
2021/10/12 19:47:44;;;;;;;4.10;2.63;;;;;;;;;;5030387;28;20033;-58
2021/10/12 19:56:16;;;;;;;3.88;2.78;;;;;;;;;;5012897;28;20029;-58
2021/10/12 19:59:07;;;;;;;;;;;;;;;;;;;;;
2021/10/12 20:02:31;;;;;;;4.63;3.05;;;;;;;;;;5032564;28;20133;-59
2021/10/12 20:10:36;;;;;;;;;;;;;;;;;;5013721;28;20046;-58
2021/10/12 20:16:09;;;;;;;5.38;3.97;;;;;;;;;;5032969;28;20160;-54
2021/10/12 20:22:21;;;;;;;;;;;;;;;;;;;;;
2021/10/12 20:25:00;;;;;;;5.25;3.55;;;;;;;;;;5029470;28;20132;-56
2021/10/12 20:30:39;;;;;;;2.90;2.50;;;;;;;;;;5031266;28;20495;-57
2021/10/12 20:33:14;;;;;;;6.45;3.67;;;;;;;;;;5027070;28;20034;-58
2021/10/12 20:38:57;;;;;;;6.07;3.60;;;;;;;;;;5009136;28;20484;-57
2021/10/12 20:41:41;;;;;;;4.80;4.15;;;;;;;;;;5011510;28;20431;-58
2021/10/12 20:44:18;;;;;;;5.80;5.20;;;;;;;;;;5014685;28;20033;-58
2021/10/12 20:50:07;;;;;;;6.20;4.90;;;;;;;;;;5030671;28;20115;-57
2021/10/12 20:56:05;;;;;;;7.90;6.72;;;;;;;;;;5030221;28;20384;-56
2021/10/12 20:59:09;;;;;;;7.18;5.40;;;;;;;;;;5027938;28;20333;-57
2021/10/12 21:01:47;;;;;;;11.10;7.78;;;;;;;;;;5033810;28;20044;-57
2021/10/12 21:04:26;;;;;;;8.13;7.22;;;;;;;;;;5038880;28;20033;-58